Time;durP1;ratioP1;P1;durP2;ratioP2;P2;SDS_P1;SDS_P2;PMS_P1;PMS_P2;Temp;Humidity;BMP_temperature;BMP_pressure;BME280_temperature;BME280_humidity;BME280_pressure;Samples;Min_cycle;Max_cycle;Signal;HPM_P1;HPM_P2
2022/05/18 00:00:27;;;;;;;;;;;21.40;52.70;;;;;;473715;250;1274;-39
2022/05/18 00:02:25;;;;;;;;;;;21.40;52.70;;;;;;473516;251;2234;-39
2022/05/18 00:04:27;;;;;;;;;;;21.40;52.60;;;;;;473757;250;1187;-39
2022/05/18 00:06:28;;;;;;;;;;;21.40;52.60;;;;;;473522;250;1204;-40
2022/05/18 00:08:35;;;;;;;;;;;21.40;52.60;;;;;;473699;250;1216;-39
2022/05/18 00:10:32;;;;;;;;;;;21.40;52.60;;;;;;473343;251;2055;-40
2022/05/18 00:12:33;;;;;;;;;;;21.30;52.60;;;;;;473711;250;1290;-39
2022/05/18 00:14:34;;;;;;;;;;;21.40;52.70;;;;;;473578;250;1197;-39
2022/05/18 00:16:36;;;;;;;;;;;21.40;52.70;;;;;;473701;250;1222;-39
2022/05/18 00:18:37;;;;;;;;;;;21.30;52.60;;;;;;473413;250;1237;-39
2022/05/18 00:20:39;;;;;;;;;;;21.40;52.60;;;;;;473672;250;1181;-39
2022/05/18 00:22:40;;;;;;;;;;;21.40;52.50;;;;;;473590;250;2187;-40
2022/05/18 00:24:41;;;;;;;;;;;21.40;52.50;;;;;;473940;250;1293;-39
2022/05/18 00:26:42;;;;;;;;;;;21.40;52.50;;;;;;473894;250;1246;-39
2022/05/18 00:28:44;;;;;;;;;;;21.40;52.40;;;;;;473633;250;1194;-39
2022/05/18 00:30:45;;;;;;;;;;;21.40;52.50;;;;;;473570;250;1184;-40
2022/05/18 00:32:46;;;;;;;;;;;21.40;52.50;;;;;;473541;250;1332;-39
2022/05/18 00:34:48;;;;;;;;;;;21.40;52.60;;;;;;473577;250;1306;-39
2022/05/18 00:36:49;;;;;;;;;;;21.30;52.60;;;;;;473476;250;1293;-39
2022/05/18 00:38:50;;;;;;;;;;;21.40;52.60;;;;;;473550;250;1222;-40
2022/05/18 00:40:52;;;;;;;;;;;21.40;52.60;;;;;;473685;250;1249;-39
2022/05/18 00:42:53;;;;;;;;;;;21.40;52.50;;;;;;473677;250;2122;-39
2022/05/18 00:44:54;;;;;;;;;;;21.40;52.50;;;;;;473523;250;1214;-39
2022/05/18 00:46:55;;;;;;;;;;;21.40;52.50;;;;;;473507;250;1209;-40
2022/05/18 00:48:57;;;;;;;;;;;21.40;52.50;;;;;;473796;250;1259;-39
2022/05/18 00:50:58;;;;;;;;;;;21.40;52.60;;;;;;473673;250;1251;-39
2022/05/18 00:53:00;;;;;;;;;;;21.40;52.50;;;;;;473505;250;1224;-39
2022/05/18 00:55:01;;;;;;;;;;;21.30;52.50;;;;;;473694;250;1230;-39
2022/05/18 00:57:02;;;;;;;;;;;21.30;52.60;;;;;;473596;250;1289;-39
2022/05/18 00:59:04;;;;;;;;;;;21.40;52.80;;;;;;473508;250;1267;-39
2022/05/18 01:01:07;;;;;;;;;;;21.40;52.70;;;;;;473986;250;1169;-39
2022/05/18 01:03:06;;;;;;;;;;;21.40;52.60;;;;;;473359;252;2205;-39
2022/05/18 01:05:08;;;;;;;;;;;21.30;52.60;;;;;;473487;250;1345;-40
2022/05/18 01:07:09;;;;;;;;;;;21.40;52.60;;;;;;473452;250;1268;-40
2022/05/18 01:09:10;;;;;;;;;;;21.40;52.60;;;;;;473849;250;1402;-39
2022/05/18 01:11:12;;;;;;;;;;;21.40;52.60;;;;;;473505;250;1670;-40
2022/05/18 01:13:13;;;;;;;;;;;21.30;52.70;;;;;;473524;250;1244;-40
2022/05/18 01:15:14;;;;;;;;;;;21.40;52.70;;;;;;473600;250;1318;-40
2022/05/18 01:17:16;;;;;;;;;;;21.40;52.60;;;;;;473648;250;1351;-39
2022/05/18 01:19:17;;;;;;;;;;;21.30;52.50;;;;;;473616;250;1243;-39
2022/05/18 01:21:18;;;;;;;;;;;21.40;52.60;;;;;;473513;250;1225;-40
2022/05/18 01:23:20;;;;;;;;;;;21.40;52.60;;;;;;473963;250;2134;-39
2022/05/18 01:25:21;;;;;;;;;;;21.40;52.60;;;;;;474017;250;1240;-39
2022/05/18 01:27:22;;;;;;;;;;;21.30;52.50;;;;;;473759;250;1179;-39
2022/05/18 01:29:24;;;;;;;;;;;21.40;52.60;;;;;;473805;250;1223;-39
2022/05/18 01:31:25;;;;;;;;;;;21.40;52.50;;;;;;473704;250;2454;-39
2022/05/18 01:33:26;;;;;;;;;;;21.40;52.50;;;;;;473708;250;1063;-39
2022/05/18 01:35:27;;;;;;;;;;;21.40;52.50;;;;;;473606;250;1199;-40
2022/05/18 01:37:29;;;;;;;;;;;21.40;52.60;;;;;;473634;250;1205;-39
2022/05/18 01:39:30;;;;;;;;;;;21.40;52.60;;;;;;473600;250;1266;-39
2022/05/18 01:41:31;;;;;;;;;;;21.40;52.60;;;;;;473770;250;1278;-39
2022/05/18 01:43:33;;;;;;;;;;;21.40;52.60;;;;;;473624;250;2138;-39
2022/05/18 01:45:34;;;;;;;;;;;21.30;52.60;;;;;;473581;250;1242;-39
2022/05/18 01:47:35;;;;;;;;;;;21.40;52.60;;;;;;473737;250;1217;-39
2022/05/18 01:49:37;;;;;;;;;;;21.30;52.60;;;;;;473561;250;1303;-39
2022/05/18 01:51:38;;;;;;;;;;;21.40;52.80;;;;;;473591;250;1329;-40
2022/05/18 01:53:39;;;;;;;;;;;21.40;52.70;;;;;;473725;250;1268;-39
2022/05/18 01:55:41;;;;;;;;;;;21.30;52.60;;;;;;473528;250;1171;-39
2022/05/18 01:57:42;;;;;;;;;;;21.30;52.60;;;;;;473455;250;1229;-39
2022/05/18 01:59:43;;;;;;;;;;;21.40;52.70;;;;;;473610;250;1631;-39
2022/05/18 02:01:45;;;;;;;;;;;21.30;52.60;;;;;;473744;250;1497;-39
2022/05/18 02:03:46;;;;;;;;;;;21.30;52.60;;;;;;473551;250;2149;-39
2022/05/18 02:05:47;;;;;;;;;;;21.40;52.70;;;;;;473937;250;1402;-39
2022/05/18 02:07:48;;;;;;;;;;;21.40;52.70;;;;;;473756;250;1284;-40
2022/05/18 02:09:50;;;;;;;;;;;21.40;52.60;;;;;;473640;250;1338;-39
2022/05/18 02:11:51;;;;;;;;;;;21.40;52.60;;;;;;473783;250;1211;-39
2022/05/18 02:13:52;;;;;;;;;;;21.40;52.60;;;;;;473524;250;1345;-39
2022/05/18 02:15:54;;;;;;;;;;;21.30;52.50;;;;;;473570;250;1230;-40
2022/05/18 02:17:55;;;;;;;;;;;21.30;52.60;;;;;;473806;250;1267;-39
2022/05/18 02:19:57;;;;;;;;;;;21.40;52.70;;;;;;473685;250;1310;-39
2022/05/18 02:21:58;;;;;;;;;;;21.40;52.70;;;;;;473652;250;1224;-39
2022/05/18 02:24:00;;;;;;;;;;;21.30;52.60;;;;;;473590;250;2234;-40
2022/05/18 02:26:01;;;;;;;;;;;21.40;52.60;;;;;;473551;250;1270;-39
2022/05/18 02:28:02;;;;;;;;;;;21.30;52.60;;;;;;473611;250;1204;-39
2022/05/18 02:30:04;;;;;;;;;;;21.40;52.60;;;;;;473902;250;1205;-39
2022/05/18 02:32:05;;;;;;;;;;;21.40;52.60;;;;;;473537;250;1239;-39
2022/05/18 02:34:06;;;;;;;;;;;21.40;52.60;;;;;;473643;249;1277;-39
2022/05/18 02:36:08;;;;;;;;;;;21.40;52.60;;;;;;473900;250;1212;-40
2022/05/18 02:38:10;;;;;;;;;;;21.40;52.60;;;;;;473784;250;1217;-39
2022/05/18 02:40:11;;;;;;;;;;;21.30;52.50;;;;;;473656;250;1330;-39
2022/05/18 02:42:13;;;;;;;;;;;21.40;52.50;;;;;;473627;250;1278;-40
2022/05/18 02:44:14;;;;;;;;;;;21.40;52.50;;;;;;473646;250;2130;-39
2022/05/18 02:46:15;;;;;;;;;;;21.40;52.60;;;;;;473581;250;1249;-39
2022/05/18 02:48:17;;;;;;;;;;;21.40;52.50;;;;;;473630;250;1286;-40
2022/05/18 02:50:18;;;;;;;;;;;21.30;52.50;;;;;;473815;250;1206;-39
2022/05/18 02:52:19;;;;;;;;;;;21.30;52.50;;;;;;473530;250;1560;-39
2022/05/18 02:56:40;;;;;;;;;;;21.40;52.60;;;;;;473687;251;1310;-39
2022/05/18 02:58:42;;;;;;;;;;;21.40;52.60;;;;;;473514;250;1274;-39
2022/05/18 03:00:43;;;;;;;;;;;21.30;52.50;;;;;;473528;251;2407;-39
2022/05/18 03:02:44;;;;;;;;;;;21.30;52.50;;;;;;473534;250;1187;-39
2022/05/18 03:04:45;;;;;;;;;;;21.40;52.60;;;;;;473639;250;2138;-39
2022/05/18 03:06:47;;;;;;;;;;;21.40;52.50;;;;;;473792;250;1230;-39
2022/05/18 03:08:48;;;;;;;;;;;21.30;52.50;;;;;;473621;250;1522;-39
2022/05/18 03:10:49;;;;;;;;;;;21.30;52.60;;;;;;473731;250;1194;-39
2022/05/18 03:12:50;;;;;;;;;;;21.40;52.70;;;;;;473729;250;1277;-39
2022/05/18 03:14:52;;;;;;;;;;;21.40;52.70;;;;;;473592;250;1308;-40
2022/05/18 03:16:53;;;;;;;;;;;21.40;52.70;;;;;;473803;250;1405;-39
2022/05/18 03:18:55;;;;;;;;;;;21.40;52.70;;;;;;473821;250;1118;-40
2022/05/18 03:23:33;;;;;;;;;;;21.40;52.60;;;;;;473637;252;2146;-39
2022/05/18 03:25:35;;;;;;;;;;;21.40;52.60;;;;;;474068;250;1045;-39
2022/05/18 03:27:36;;;;;;;;;;;21.40;52.40;;;;;;473687;250;1248;-39
2022/05/18 03:29:37;;;;;;;;;;;21.30;52.50;;;;;;473705;250;1592;-39
2022/05/18 03:31:39;;;;;;;;;;;21.40;52.60;;;;;;473516;250;1239;-39
2022/05/18 03:33:40;;;;;;;;;;;21.40;52.50;;;;;;473557;250;1328;-39
2022/05/18 03:35:41;;;;;;;;;;;21.40;52.60;;;;;;473801;250;1291;-39
2022/05/18 03:37:43;;;;;;;;;;;21.30;52.60;;;;;;473663;250;1771;-40
2022/05/18 03:39:45;;;;;;;;;;;21.40;52.60;;;;;;474048;250;1388;-39
2022/05/18 03:41:45;;;;;;;;;;;21.40;52.60;;;;;;473684;250;2112;-39
2022/05/18 03:43:47;;;;;;;;;;;21.30;52.50;;;;;;473904;250;2134;-40
2022/05/18 03:45:48;;;;;;;;;;;21.40;52.50;;;;;;473815;250;1234;-39
2022/05/18 03:47:49;;;;;;;;;;;21.40;52.60;;;;;;473676;250;1337;-39
2022/05/18 03:49:51;;;;;;;;;;;21.40;52.50;;;;;;473949;250;1189;-39
2022/05/18 03:51:52;;;;;;;;;;;21.40;52.60;;;;;;473983;250;1303;-40
2022/05/18 03:53:53;;;;;;;;;;;21.30;52.50;;;;;;473766;250;1181;-39
2022/05/18 03:55:54;;;;;;;;;;;21.30;52.60;;;;;;473608;250;1554;-40
2022/05/18 03:57:56;;;;;;;;;;;21.30;52.60;;;;;;473774;250;1226;-39
2022/05/18 03:59:57;;;;;;;;;;;21.30;52.60;;;;;;473788;250;1364;-39
2022/05/18 04:01:58;;;;;;;;;;;21.40;52.50;;;;;;473657;250;1242;-39
2022/05/18 04:04:00;;;;;;;;;;;21.40;52.50;;;;;;473671;250;2204;-39
2022/05/18 04:06:01;;;;;;;;;;;21.30;52.50;;;;;;473468;250;1304;-39
2022/05/18 04:08:02;;;;;;;;;;;21.40;52.60;;;;;;473637;250;1202;-39
2022/05/18 04:10:04;;;;;;;;;;;21.40;52.50;;;;;;473496;250;1289;-39
2022/05/18 04:12:05;;;;;;;;;;;21.40;52.60;;;;;;473675;250;1313;-39
2022/05/18 04:14:06;;;;;;;;;;;21.40;52.60;;;;;;473670;250;1191;-39
2022/05/18 04:16:08;;;;;;;;;;;21.30;52.50;;;;;;473845;250;1252;-39
2022/05/18 04:18:10;;;;;;;;;;;21.40;52.60;;;;;;473508;250;1214;-40
2022/05/18 04:20:11;;;;;;;;;;;21.40;52.60;;;;;;473477;250;1425;-39
2022/05/18 04:22:13;;;;;;;;;;;21.40;52.50;;;;;;473517;250;1292;-39
2022/05/18 04:24:14;;;;;;;;;;;21.40;52.50;;;;;;473825;250;2122;-39
2022/05/18 04:26:15;;;;;;;;;;;21.40;52.60;;;;;;473667;250;1204;-39
2022/05/18 04:28:17;;;;;;;;;;;21.40;52.50;;;;;;473487;250;1219;-39
2022/05/18 04:30:18;;;;;;;;;;;21.40;52.50;;;;;;473425;252;1298;-40
2022/05/18 04:32:20;;;;;;;;;;;21.40;52.50;;;;;;473564;250;1244;-39
2022/05/18 04:34:22;;;;;;;;;;;21.40;52.60;;;;;;473503;250;2140;-39
2022/05/18 04:36:23;;;;;;;;;;;21.40;52.50;;;;;;473403;250;1328;-39
2022/05/18 04:38:24;;;;;;;;;;;21.40;52.40;;;;;;473452;250;1493;-39
2022/05/18 04:40:25;;;;;;;;;;;21.40;52.50;;;;;;473568;250;1062;-39
2022/05/18 04:42:26;;;;;;;;;;;21.40;52.40;;;;;;473815;250;1181;-39
2022/05/18 04:44:28;;;;;;;;;;;21.40;52.50;;;;;;473404;250;2249;-39
2022/05/18 04:46:29;;;;;;;;;;;21.50;52.40;;;;;;473350;250;1320;-39
2022/05/18 04:48:31;;;;;;;;;;;21.40;52.40;;;;;;473598;250;1032;-39
2022/05/18 04:50:32;;;;;;;;;;;21.40;52.50;;;;;;473562;250;1155;-39
2022/05/18 04:52:34;;;;;;;;;;;21.50;52.40;;;;;;473438;250;1157;-39
2022/05/18 04:54:35;;;;;;;;;;;21.50;52.40;;;;;;473458;250;1076;-39
2022/05/18 04:56:36;;;;;;;;;;;21.40;52.40;;;;;;473585;250;1451;-39
2022/05/18 04:58:37;;;;;;;;;;;21.40;52.40;;;;;;473415;250;1253;-39
2022/05/18 05:00:39;;;;;;;;;;;21.40;52.60;;;;;;473397;250;997;-39
2022/05/18 05:02:40;;;;;;;;;;;21.40;52.50;;;;;;473422;250;1774;-39
2022/05/18 05:04:42;;;;;;;;;;;21.40;52.60;;;;;;473314;250;2200;-39
2022/05/18 05:06:43;;;;;;;;;;;21.40;52.50;;;;;;473293;250;1314;-39
2022/05/18 05:08:44;;;;;;;;;;;21.40;52.40;;;;;;473439;250;1166;-40
2022/05/18 05:10:46;;;;;;;;;;;21.40;52.40;;;;;;473213;250;1188;-39
2022/05/18 05:12:47;;;;;;;;;;;21.50;52.40;;;;;;473334;250;1581;-39
2022/05/18 05:14:48;;;;;;;;;;;21.40;52.40;;;;;;473521;250;1291;-39
2022/05/18 05:16:50;;;;;;;;;;;21.50;52.40;;;;;;473241;250;1234;-40
2022/05/18 05:18:51;;;;;;;;;;;21.40;52.40;;;;;;473725;250;1249;-40
2022/05/18 05:20:52;;;;;;;;;;;21.50;52.50;;;;;;473186;250;1249;-39
2022/05/18 05:22:54;;;;;;;;;;;21.50;52.40;;;;;;473437;250;1214;-39
2022/05/18 05:24:55;;;;;;;;;;;21.40;52.40;;;;;;473185;250;2201;-40
2022/05/18 05:26:57;;;;;;;;;;;21.40;52.50;;;;;;473398;250;1186;-39
2022/05/18 05:28:58;;;;;;;;;;;21.40;52.40;;;;;;473352;250;1303;-39
2022/05/18 05:30:59;;;;;;;;;;;21.40;52.50;;;;;;473287;250;1230;-39
2022/05/18 05:33:01;;;;;;;;;;;21.40;52.50;;;;;;473434;250;1569;-39
2022/05/18 05:35:02;;;;;;;;;;;21.40;52.50;;;;;;473288;250;1296;-39
2022/05/18 05:37:03;;;;;;;;;;;21.40;52.50;;;;;;473255;250;1151;-39
2022/05/18 05:39:05;;;;;;;;;;;21.40;52.40;;;;;;473112;250;1225;-41
2022/05/18 05:41:06;;;;;;;;;;;21.50;52.40;;;;;;473057;250;1327;-40
2022/05/18 05:43:07;;;;;;;;;;;21.40;52.40;;;;;;473117;250;1083;-40
2022/05/18 05:45:09;;;;;;;;;;;21.50;52.50;;;;;;472962;250;2197;-40
2022/05/18 05:47:11;;;;;;;;;;;21.50;52.40;;;;;;473208;250;1213;-40
2022/05/18 05:49:12;;;;;;;;;;;21.40;52.40;;;;;;473209;251;1667;-41
2022/05/18 05:51:13;;;;;;;;;;;21.50;52.40;;;;;;473219;248;1330;-40
2022/05/18 05:53:14;;;;;;;;;;;21.50;52.40;;;;;;473257;250;1113;-40
2022/05/18 05:55:16;;;;;;;;;;;21.50;52.40;;;;;;473317;250;1095;-41
2022/05/18 05:57:17;;;;;;;;;;;21.50;52.40;;;;;;473327;250;1153;-40
2022/05/18 05:59:19;;;;;;;;;;;21.50;52.40;;;;;;473383;250;1072;-40
2022/05/18 06:01:20;;;;;;;;;;;21.50;52.40;;;;;;473322;251;2298;-40
2022/05/18 06:03:21;;;;;;;;;;;21.40;52.40;;;;;;473309;250;1357;-41
2022/05/18 06:05:22;;;;;;;;;;;21.50;52.50;;;;;;473292;250;2174;-41
2022/05/18 06:07:24;;;;;;;;;;;21.40;52.40;;;;;;473222;250;1235;-40
2022/05/18 06:09:25;;;;;;;;;;;21.40;52.50;;;;;;472995;250;1071;-40
2022/05/18 06:11:27;;;;;;;;;;;21.50;52.40;;;;;;473029;252;1248;-41
2022/05/18 06:13:28;;;;;;;;;;;21.40;52.40;;;;;;472833;252;2238;-40
2022/05/18 06:15:29;;;;;;;;;;;21.40;52.40;;;;;;472865;250;1294;-40
2022/05/18 06:17:31;;;;;;;;;;;21.50;52.40;;;;;;472939;250;1345;-41
2022/05/18 06:19:33;;;;;;;;;;;21.50;52.40;;;;;;472859;250;1192;-41
2022/05/18 06:21:34;;;;;;;;;;;21.50;52.30;;;;;;472894;250;2348;-40
2022/05/18 06:23:36;;;;;;;;;;;21.50;52.40;;;;;;472911;250;1612;-40
2022/05/18 06:25:36;;;;;;;;;;;21.50;52.40;;;;;;472934;250;2206;-41
2022/05/18 06:27:37;;;;;;;;;;;21.50;52.40;;;;;;472926;250;1507;-40
2022/05/18 06:29:39;;;;;;;;;;;21.50;52.40;;;;;;472883;250;1154;-40
2022/05/18 06:31:40;;;;;;;;;;;21.50;52.40;;;;;;472962;250;1245;-41
2022/05/18 06:33:41;;;;;;;;;;;21.50;52.30;;;;;;472742;250;1552;-41
2022/05/18 06:35:44;;;;;;;;;;;21.50;52.40;;;;;;472750;250;1516;-41
2022/05/18 06:37:44;;;;;;;;;;;21.50;52.30;;;;;;472989;252;1281;-40
2022/05/18 06:39:45;;;;;;;;;;;21.50;52.40;;;;;;472976;250;1371;-41
2022/05/18 06:41:47;;;;;;;;;;;21.50;52.40;;;;;;473000;250;1336;-40
2022/05/18 06:43:48;;;;;;;;;;;21.50;52.40;;;;;;472785;250;1607;-40
2022/05/18 06:45:50;;;;;;;;;;;21.50;52.50;;;;;;472595;250;2181;-40
2022/05/18 06:47:51;;;;;;;;;;;21.50;52.40;;;;;;473393;250;1198;-41
2022/05/18 06:49:52;;;;;;;;;;;21.50;52.50;;;;;;472731;250;1081;-40
2022/05/18 06:51:55;;;;;;;;;;;21.50;52.60;;;;;;472589;250;1305;-40
2022/05/18 06:53:56;;;;;;;;;;;21.50;52.50;;;;;;472502;252;1697;-40
2022/05/18 06:55:56;;;;;;;;;;;21.50;52.50;;;;;;473357;251;2024;-40
2022/05/18 06:57:58;;;;;;;;;;;21.50;52.50;;;;;;472890;250;1084;-41
2022/05/18 06:59:59;;;;;;;;;;;21.50;52.50;;;;;;473361;250;1251;-40
2022/05/18 07:02:01;;;;;;;;;;;21.50;52.50;;;;;;473361;250;1272;-41
2022/05/18 07:04:02;;;;;;;;;;;21.50;52.60;;;;;;473042;250;1347;-40
2022/05/18 07:06:03;;;;;;;;;;;21.50;52.60;;;;;;472747;250;2210;-40
2022/05/18 07:08:04;;;;;;;;;;;21.50;52.60;;;;;;472736;250;1275;-40
2022/05/18 07:10:06;;;;;;;;;;;21.50;52.50;;;;;;472833;250;1307;-40
2022/05/18 07:12:09;;;;;;;;;;;21.60;52.50;;;;;;472619;250;1294;-40
2022/05/18 07:14:08;;;;;;;;;;;21.60;52.40;;;;;;472205;252;2402;-40
2022/05/18 07:16:10;;;;;;;;;;;21.50;52.50;;;;;;472308;250;1191;-40
2022/05/18 07:18:11;;;;;;;;;;;21.50;52.50;;;;;;472548;250;1593;-40
2022/05/18 07:20:12;;;;;;;;;;;21.50;52.50;;;;;;472529;250;1281;-40
2022/05/18 07:22:14;;;;;;;;;;;21.60;52.60;;;;;;472525;250;1261;-40
2022/05/18 07:24:15;;;;;;;;;;;21.60;52.50;;;;;;472653;250;1405;-41
2022/05/18 07:26:16;;;;;;;;;;;21.50;52.50;;;;;;473022;250;2200;-40
2022/05/18 07:28:18;;;;;;;;;;;21.60;52.50;;;;;;473317;250;1250;-40
2022/05/18 07:30:19;;;;;;;;;;;21.50;52.50;;;;;;472923;250;1182;-41
2022/05/18 07:32:20;;;;;;;;;;;21.50;52.50;;;;;;473349;250;1070;-40
2022/05/18 07:34:22;;;;;;;;;;;21.50;52.60;;;;;;473018;250;1199;-40
2022/05/18 07:36:23;;;;;;;;;;;21.50;52.70;;;;;;472829;250;1186;-41
2022/05/18 07:38:24;;;;;;;;;;;21.50;52.70;;;;;;472858;250;1051;-40
2022/05/18 07:40:25;;;;;;;;;;;21.50;52.70;;;;;;473265;250;1046;-40
2022/05/18 07:42:27;;;;;;;;;;;21.50;52.70;;;;;;473160;250;1070;-40
2022/05/18 07:44:28;;;;;;;;;;;21.60;52.60;;;;;;473148;250;1062;-41
2022/05/18 07:46:29;;;;;;;;;;;21.60;52.60;;;;;;473212;250;2208;-40
2022/05/18 07:48:31;;;;;;;;;;;21.50;52.70;;;;;;472758;250;1212;-40
2022/05/18 07:50:32;;;;;;;;;;;21.50;52.70;;;;;;472381;250;1367;-40
2022/05/18 07:52:33;;;;;;;;;;;21.50;52.70;;;;;;473263;250;1122;-40
2022/05/18 07:54:35;;;;;;;;;;;21.50;52.70;;;;;;473342;250;1352;-40
2022/05/18 07:56:36;;;;;;;;;;;21.50;52.70;;;;;;472822;250;1241;-40
2022/05/18 07:58:37;;;;;;;;;;;21.50;52.70;;;;;;472454;250;1258;-41
2022/05/18 08:00:39;;;;;;;;;;;21.50;52.70;;;;;;472672;250;1256;-41
2022/05/18 08:02:40;;;;;;;;;;;21.50;52.70;;;;;;472892;250;1165;-40
2022/05/18 08:04:41;;;;;;;;;;;21.50;52.90;;;;;;472848;250;1202;-41
2022/05/18 08:06:43;;;;;;;;;;;21.50;52.80;;;;;;473062;250;2177;-40
2022/05/18 08:08:44;;;;;;;;;;;21.50;52.70;;;;;;472715;250;1049;-40
2022/05/18 08:15:24;;;;;;;;;;;21.50;52.90;;;;;;472493;251;1303;-40
2022/05/18 08:17:25;;;;;;;;;;;21.50;52.90;;;;;;472463;250;1302;-40
2022/05/18 08:19:26;;;;;;;;;;;21.50;52.90;;;;;;472505;250;1384;-40
2022/05/18 08:21:27;;;;;;;;;;;21.50;52.80;;;;;;472832;250;1191;-41
2022/05/18 08:23:29;;;;;;;;;;;21.50;52.80;;;;;;473379;250;1176;-40
2022/05/18 08:25:30;;;;;;;;;;;21.50;52.90;;;;;;472406;250;2186;-40
2022/05/18 08:27:32;;;;;;;;;;;21.50;52.90;;;;;;472762;250;1369;-40
2022/05/18 08:29:35;;;;;;;;;;;21.50;53.00;;;;;;473359;250;1046;-41
2022/05/18 08:31:34;;;;;;;;;;;21.50;52.90;;;;;;473214;251;2005;-40
2022/05/18 08:33:36;;;;;;;;;;;21.50;53.00;;;;;;472646;250;1211;-40
2022/05/18 08:35:37;;;;;;;;;;;21.50;53.00;;;;;;472539;250;1207;-40
2022/05/18 08:37:39;;;;;;;;;;;21.50;53.00;;;;;;472634;250;1233;-40
2022/05/18 08:39:41;;;;;;;;;;;21.50;52.90;;;;;;473121;250;1103;-40
2022/05/18 08:41:42;;;;;;;;;;;21.50;52.90;;;;;;472955;250;1146;-40
2022/05/18 08:43:44;;;;;;;;;;;21.50;52.90;;;;;;473137;250;1343;-40
2022/05/18 08:45:46;;;;;;;;;;;21.50;52.90;;;;;;472747;250;2205;-40
2022/05/18 08:47:47;;;;;;;;;;;21.50;53.00;;;;;;472800;250;1445;-41
2022/05/18 08:49:48;;;;;;;;;;;21.50;53.00;;;;;;472825;250;1084;-40
2022/05/18 08:51:50;;;;;;;;;;;21.50;53.00;;;;;;473261;250;1072;-41
2022/05/18 08:53:51;;;;;;;;;;;21.50;53.10;;;;;;472594;250;1215;-40
2022/05/18 08:55:53;;;;;;;;;;;21.50;53.10;;;;;;472472;250;1264;-41
2022/05/18 08:57:54;;;;;;;;;;;21.40;53.00;;;;;;472394;250;1290;-40
2022/05/18 08:59:55;;;;;;;;;;;21.40;53.20;;;;;;472360;250;1245;-40
2022/05/18 09:01:58;;;;;;;;;;;21.40;53.20;;;;;;472360;250;1162;-40
2022/05/18 09:03:58;;;;;;;;;;;21.40;53.20;;;;;;472330;251;2350;-40
2022/05/18 09:05:59;;;;;;;;;;;21.40;53.30;;;;;;472384;250;2145;-40
2022/05/18 09:08:00;;;;;;;;;;;21.40;53.20;;;;;;472593;250;1352;-41
2022/05/18 09:10:14;;;;;;;;;;;21.40;53.20;;;;;;472712;250;1231;-41
2022/05/18 09:12:15;;;;;;;;;;;21.40;53.30;;;;;;472664;250;1570;-40
2022/05/18 09:14:17;;;;;;;;;;;21.40;53.30;;;;;;473223;250;1104;-40
2022/05/18 09:16:18;;;;;;;;;;;21.40;53.30;;;;;;473084;250;1044;-40
2022/05/18 09:18:20;;;;;;;;;;;21.40;53.20;;;;;;473325;250;1394;-40
2022/05/18 09:20:21;;;;;;;;;;;21.30;53.20;;;;;;472887;250;1182;-41
2022/05/18 09:22:22;;;;;;;;;;;21.40;53.30;;;;;;473297;250;1113;-41
2022/05/18 09:24:23;;;;;;;;;;;21.40;53.30;;;;;;472950;250;1333;-40
2022/05/18 09:26:25;;;;;;;;;;;21.40;53.30;;;;;;472815;250;2189;-41
2022/05/18 09:28:26;;;;;;;;;;;21.40;53.40;;;;;;473167;250;1343;-41
2022/05/18 09:30:27;;;;;;;;;;;21.40;53.30;;;;;;473280;250;1143;-40
2022/05/18 09:32:29;;;;;;;;;;;21.40;53.30;;;;;;473291;250;1099;-40
2022/05/18 09:34:31;;;;;;;;;;;21.40;53.40;;;;;;473130;250;1079;-40
2022/05/18 09:36:32;;;;;;;;;;;21.40;53.30;;;;;;473034;250;2134;-40
2022/05/18 09:38:33;;;;;;;;;;;21.40;53.40;;;;;;473179;251;2237;-40
2022/05/18 09:40:34;;;;;;;;;;;21.40;53.30;;;;;;473220;250;1133;-40
2022/05/18 09:42:35;;;;;;;;;;;21.40;53.30;;;;;;473249;250;1101;-40
2022/05/18 09:44:37;;;;;;;;;;;21.40;53.20;;;;;;472729;250;1118;-40
2022/05/18 09:46:39;;;;;;;;;;;21.40;53.30;;;;;;472990;250;2197;-40
2022/05/18 09:48:39;;;;;;;;;;;21.50;53.30;;;;;;473095;250;2199;-40
2022/05/18 09:50:41;;;;;;;;;;;21.50;53.30;;;;;;472768;250;1195;-41
2022/05/18 09:52:42;;;;;;;;;;;21.50;53.30;;;;;;473029;250;1097;-40
2022/05/18 09:54:43;;;;;;;;;;;21.40;53.30;;;;;;473179;250;975;-40
2022/05/18 09:56:45;;;;;;;;;;;21.50;53.20;;;;;;473103;250;1201;-40
2022/05/18 09:58:46;;;;;;;;;;;21.50;53.40;;;;;;472508;250;1210;-41
2022/05/18 10:00:48;;;;;;;;;;;21.40;53.30;;;;;;472441;250;1327;-40
2022/05/18 10:07:51;;;;;;;;;;;21.40;53.30;;;;;;451798;260;1401;-40
2022/05/18 10:09:52;;;;;;;;;;;21.40;53.40;;;;;;457901;252;1266;-40
2022/05/18 10:11:53;;;;;;;;;;;21.50;53.30;;;;;;472431;250;1340;-41
2022/05/18 10:13:55;;;;;;;;;;;21.50;53.30;;;;;;472715;250;1212;-40
2022/05/18 10:15:56;;;;;;;;;;;21.50;53.10;;;;;;472811;250;1336;-40
2022/05/18 10:17:57;;;;;;;;;;;21.50;53.10;;;;;;473078;250;1356;-40
2022/05/18 10:19:59;;;;;;;;;;;21.50;53.10;;;;;;473060;250;1125;-41
2022/05/18 10:22:00;;;;;;;;;;;21.60;53.10;;;;;;472925;250;1183;-40
2022/05/18 10:24:02;;;;;;;;;;;21.60;53.10;;;;;;472696;250;1226;-40
2022/05/18 10:26:04;;;;;;;;;;;21.60;53.10;;;;;;472721;250;2185;-41
2022/05/18 10:28:05;;;;;;;;;;;21.60;53.20;;;;;;472998;250;1099;-40
2022/05/18 10:30:08;;;;;;;;;;;21.60;53.00;;;;;;473302;250;1099;-40
2022/05/18 10:32:09;;;;;;;;;;;21.70;53.00;;;;;;472867;252;2170;-40
2022/05/18 10:34:09;;;;;;;;;;;21.60;53.00;;;;;;473091;250;2166;-41
2022/05/18 10:36:11;;;;;;;;;;;21.60;53.10;;;;;;472708;250;1308;-40
2022/05/18 10:38:12;;;;;;;;;;;21.60;53.00;;;;;;472747;250;1290;-41
2022/05/18 10:40:13;;;;;;;;;;;21.70;53.00;;;;;;472685;250;1262;-40
2022/05/18 10:42:15;;;;;;;;;;;21.70;53.00;;;;;;472769;250;1320;-40
2022/05/18 10:44:16;;;;;;;;;;;21.70;53.00;;;;;;472694;250;1238;-41
2022/05/18 10:46:18;;;;;;;;;;;21.70;53.00;;;;;;472693;250;2192;-40
2022/05/18 10:48:19;;;;;;;;;;;21.60;53.00;;;;;;472780;250;1267;-40
2022/05/18 10:50:24;;;;;;;;;;;21.60;53.10;;;;;;472929;250;1194;-40
2022/05/18 10:52:22;;;;;;;;;;;21.60;53.20;;;;;;472822;251;2247;-41
2022/05/18 10:54:24;;;;;;;;;;;21.60;53.20;;;;;;472647;250;1263;-40
2022/05/18 10:56:25;;;;;;;;;;;21.60;53.10;;;;;;472629;250;1821;-40
2022/05/18 10:58:26;;;;;;;;;;;21.60;53.10;;;;;;472795;250;1323;-41
2022/05/18 11:00:27;;;;;;;;;;;21.60;53.30;;;;;;472570;250;1223;-40
2022/05/18 11:02:29;;;;;;;;;;;21.60;53.20;;;;;;473393;250;1540;-40
2022/05/18 11:04:30;;;;;;;;;;;21.60;53.10;;;;;;473165;250;2385;-40
2022/05/18 11:06:31;;;;;;;;;;;21.70;53.10;;;;;;472868;250;2205;-40
2022/05/18 11:08:33;;;;;;;;;;;21.70;53.10;;;;;;472746;250;1218;-41
2022/05/18 11:10:34;;;;;;;;;;;21.70;53.00;;;;;;472700;250;1316;-40
2022/05/18 11:12:35;;;;;;;;;;;21.70;53.10;;;;;;472691;250;1236;-41
2022/05/18 11:14:36;;;;;;;;;;;21.60;53.10;;;;;;472573;250;1245;-40
2022/05/18 11:16:38;;;;;;;;;;;21.70;53.10;;;;;;472633;250;1263;-40
2022/05/18 11:18:39;;;;;;;;;;;21.70;53.00;;;;;;472695;250;1187;-40
2022/05/18 11:20:41;;;;;;;;;;;21.70;53.00;;;;;;472640;250;1417;-40
2022/05/18 11:22:42;;;;;;;;;;;21.70;53.00;;;;;;472669;250;1218;-40
2022/05/18 11:24:43;;;;;;;;;;;21.70;53.00;;;;;;472741;250;1280;-41
2022/05/18 11:26:45;;;;;;;;;;;21.70;53.00;;;;;;472716;250;2139;-41
2022/05/18 11:28:46;;;;;;;;;;;21.70;53.10;;;;;;472617;250;1257;-40
2022/05/18 11:30:47;;;;;;;;;;;21.80;53.00;;;;;;472427;250;1157;-40
2022/05/18 11:32:49;;;;;;;;;;;21.70;52.90;;;;;;472518;250;1211;-40
2022/05/18 11:34:50;;;;;;;;;;;21.70;52.90;;;;;;472720;250;1286;-41
2022/05/18 11:36:51;;;;;;;;;;;21.80;52.90;;;;;;472624;250;1236;-41
2022/05/18 11:38:53;;;;;;;;;;;21.70;52.90;;;;;;472549;250;1296;-40
2022/05/18 11:40:54;;;;;;;;;;;21.80;53.00;;;;;;472594;250;1220;-40
2022/05/18 11:42:56;;;;;;;;;;;21.80;52.90;;;;;;472535;250;1206;-40
2022/05/18 11:44:57;;;;;;;;;;;21.80;52.80;;;;;;472369;249;1222;-40
2022/05/18 11:46:58;;;;;;;;;;;21.80;52.80;;;;;;472290;250;2193;-40
2022/05/18 11:49:00;;;;;;;;;;;21.80;52.80;;;;;;472401;250;1252;-40
2022/05/18 11:51:01;;;;;;;;;;;21.80;52.70;;;;;;472255;250;1703;-41
2022/05/18 11:53:02;;;;;;;;;;;21.90;52.70;;;;;;472771;250;1165;-40
2022/05/18 11:55:03;;;;;;;;;;;21.90;52.60;;;;;;472701;250;1281;-40
2022/05/18 11:57:05;;;;;;;;;;;21.90;52.70;;;;;;472810;250;1202;-41
2022/05/18 11:59:12;;;;;;;;;;;21.90;52.60;;;;;;472699;250;1315;-40
2022/05/18 12:01:11;;;;;;;;;;;21.90;52.60;;;;;;472467;252;2326;-40
2022/05/18 12:03:13;;;;;;;;;;;21.90;52.60;;;;;;472768;250;1201;-40
2022/05/18 12:05:14;;;;;;;;;;;22.00;52.60;;;;;;473223;250;1304;-40
2022/05/18 12:07:15;;;;;;;;;;;21.90;52.50;;;;;;472768;250;2214;-40
2022/05/18 12:09:16;;;;;;;;;;;21.90;52.50;;;;;;473356;250;1136;-40
2022/05/18 12:11:18;;;;;;;;;;;21.90;52.60;;;;;;473089;250;1104;-40